Yellow Mule RAWS (NWS)

Jump to table bottom
Date/Time Wind Direction Wind Speed knots Wind Gust knots RH % Accumulated Precip Inches Air Temp Fahrenheit
2022-05-20 10:04 NNW 14 21 83 3.49 22
2022-05-20 09:04 NNW 10 16 88 3.49 19
2022-05-20 08:04 N 7 15 89 3.49 18
2022-05-20 07:04 N 7 13 90 3.49 16
2022-05-20 06:04 N 10 23 90 3.49 15
2022-05-20 05:04 N 16 23 90 3.49 15
2022-05-20 04:04 NNW 17 32 90 3.49 15
2022-05-20 03:04 NNW 18 26 91 3.49 17
2022-05-20 02:04 NW 17 27 89 3.49 17
2022-05-20 01:04 NW 20 29 88 3.49 17
2022-05-20 00:04 NW 13 21 90 3.49 17
2022-05-19 23:04 NW 13 20 86 3.49 17
2022-05-19 22:04 NW 11 20 80 3.49 18
2022-05-19 21:04 NW 11 17 72 3.49 20
2022-05-19 20:04 WNW 9 14 78 3.49 19
2022-05-19 19:04 NW 10 19 50 3.49 23
2022-05-19 18:04 W 11 19 58 3.49 24
2022-05-19 17:04 W 10 23 46 3.49 27
2022-05-19 16:04 SW 17 30 51 3.49 24
2022-05-19 15:04 SW 11 23 48 3.49 25
2022-05-19 14:04 W 14 25 54 3.49 22
2022-05-19 13:04 W 14 29 45 3.49 25
2022-05-19 12:04 WSW 21 34 40 3.49 24
2022-05-19 11:04 SW 22 36 39 3.49 25
2022-05-19 10:04 SSW 18 28 41 3.49 27
2022-05-19 09:04 SW 17 29 51 3.49 24
2022-05-19 08:04 SW 17 29 71 3.49 23
2022-05-19 07:04 SW 17 28 85 3.49 22
2022-05-19 06:04 WSW 17 25 93 3.49 23
2022-05-19 05:04 W 17 28 92 3.49 25
2022-05-19 04:04 SSW 19 33 94 3.49 31
2022-05-19 03:04 SSW 23 35 90 3.49 33
2022-05-19 02:04 SW 19 30 89 3.49 34
2022-05-19 01:04 SSW 10 25 69 3.49 38
2022-05-19 00:04 SSW 12 28 65 3.49 39
2022-05-18 23:04 S 17 29 65 3.49 39
2022-05-18 22:04 S 14 30 72 3.49 38
2022-05-18 21:04 SSW 21 30 82 3.49 37
2022-05-18 20:04 SSW 19 30 97 3.48 33
2022-05-18 19:04 SSW 21 37 75 3.45 37
2022-05-18 18:04 SSW 15 36 53 3.45 41
2022-05-18 17:04 SSW 24 37 57 3.45 39
2022-05-18 16:04 S 17 40 50 3.45 42
2022-05-18 15:04 SSE 17 37 34 3.45 48
2022-05-18 14:04 SSW 10 30 28 3.45 46
2022-05-18 13:04 S 17 25 25 3.45 47
2022-05-18 12:04 SSW 12 25 24 3.45 45
2022-05-18 11:04 SSW 13 23 24 3.45 43
2022-05-18 10:04 SSW 12 20 32 3.45 43